LEAL/ALC METAR and TAF weather

Enter ICAO airport designator
Station Type Date Time Source
LEAL METAR 2021/05/13 07:00 UTC NOAA

LEAL 130700Z 27010KT CAVOK 20/07 Q1017 NOSIG


Station Type Date Time Source
LEAL Decoded METAR 2021/05/13 07:00 UTC NOAA

Alicante / El Altet, Spain (LEAL) 38-17N 000-33W 31M
May 13, 2021 - 03:00 AM EDT / 2021.05.13 0700 UTC
Wind: from the W (270 degrees) at 12 MPH (10 KT):0
Visibility: greater than 7 mile(s):0
Temperature: 68 F (20 C)
Dew Point: 44 F (7 C)
Relative Humidity: 42%
Pressure (altimeter): 30.03 in. Hg (1017 hPa)
ob: LEAL 130700Z 27010KT CAVOK 20/07 Q1017 NOSIG
cycle: 7

Station Type Date Time Source
LEAL TAF 2021/05/13 06:27 UTC NOAA

TAF TAF LEAL 130500Z 1306/1406 26009KT CAVOK TX24/1312Z TN16/1306Z
BECMG 1306/1308 10010KT
BECMG 1312/1314 16010KT

Example: see airport list